Time;durP1;ratioP1;P1;durP2;ratioP2;P2;SDS_P1;SDS_P2;PMS_P1;PMS_P2;Temp;Humidity;BMP_temperature;BMP_pressure;BME280_temperature;BME280_humidity;BME280_pressure;Samples;Min_cycle;Max_cycle;Signal;HPM_P1;HPM_P2
2023/05/17 00:01:56;;;;;;;4.70;0.63;;;;;;;11.28;52.98;100880.09;10376262;28;20128;-71
2023/05/17 00:06:57;;;;;;;6.07;0.70;;;;;;;11.10;53.82;100886.47;10359666;28;20526;-72
2023/05/17 00:11:59;;;;;;;6.57;0.85;;;;;;;10.99;53.81;100884.09;10382636;28;20157;-72
2023/05/17 00:17:00;;;;;;;1.85;0.55;;;;;;;11.06;53.80;100893.19;10383170;28;20058;-71
2023/05/17 00:22:02;;;;;;;5.43;1.13;;;;;;;11.08;54.00;100893.03;10381955;28;20069;-72
2023/05/17 00:27:04;;;;;;;5.07;0.82;;;;;;;11.04;54.24;100902.44;10381855;28;20417;-72
2023/05/17 00:32:06;;;;;;;2.25;0.80;;;;;;;10.95;54.93;100904.25;10381421;28;20084;-72
2023/05/17 00:37:07;;;;;;;3.80;0.60;;;;;;;10.84;55.09;100904.56;10386861;28;20038;-72
2023/05/17 00:42:10;;;;;;;1.73;0.88;;;;;;;10.66;55.54;100905.53;10385111;28;20042;-72
2023/05/17 00:47:11;;;;;;;5.38;0.88;;;;;;;10.65;55.43;100908.38;10384954;28;20046;-71
2023/05/17 00:52:13;;;;;;;2.78;0.77;;;;;;;10.65;55.51;100905.69;10383086;28;20076;-71
2023/05/17 00:57:15;;;;;;;6.93;1.08;;;;;;;10.66;55.59;100907.38;10383665;28;21312;-71
2023/05/17 01:02:16;;;;;;;4.47;1.33;;;;;;;10.64;55.47;100910.22;10385065;28;20041;-71
2023/05/17 01:07:18;;;;;;;3.65;1.08;;;;;;;10.59;55.85;100903.66;10386956;28;20534;-71
2023/05/17 01:12:54;;;;;;;3.60;1.13;;;;;;;10.54;56.04;100903.28;10380866;28;20077;-70
2023/05/17 01:18:10;;;;;;;3.42;1.10;;;;;;;10.40;56.40;100910.94;10381485;28;20042;-70
2023/05/17 01:23:40;;;;;;;6.47;1.25;;;;;;;10.26;57.00;100909.69;10381003;28;20042;-71
2023/05/17 01:28:45;;;;;;;7.88;1.00;;;;;;;10.17;57.03;100913.34;10387032;28;20064;-71
2023/05/17 01:33:46;;;;;;;4.35;1.13;;;;;;;10.15;57.14;100909.97;10368540;28;20169;-71
2023/05/17 01:38:48;;;;;;;5.80;1.98;;;;;;;10.02;57.24;100923.81;10382185;28;20530;-71
2023/05/17 01:44:01;;;;;;;2.58;1.20;;;;;;;9.99;57.40;100926.84;10384718;28;20049;-70
2023/05/17 01:49:19;;;;;;;3.83;1.17;;;;;;;9.93;57.65;100933.69;10366219;28;20593;-73
2023/05/17 01:54:26;;;;;;;6.25;1.10;;;;;;;9.94;57.73;100931.81;10379630;28;20042;-73
2023/05/17 01:59:30;;;;;;;4.82;0.95;;;;;;;9.92;57.81;100929.28;10379996;28;20129;-70
2023/05/17 02:04:32;;;;;;;4.53;0.90;;;;;;;9.93;57.74;100935.50;10384642;28;20056;-72
2023/05/17 02:09:33;;;;;;;5.35;1.33;;;;;;;9.90;57.94;100938.50;10364470;28;20108;-71
2023/05/17 02:14:35;;;;;;;6.53;2.08;;;;;;;9.82;58.05;100943.84;10381756;28;20049;-72
2023/05/17 02:19:36;;;;;;;5.35;1.40;;;;;;;9.78;58.41;100945.97;10384455;28;20046;-71
2023/05/17 02:24:37;;;;;;;7.13;1.25;;;;;;;9.75;58.36;100950.81;10381067;28;20042;-72
2023/05/17 02:29:39;;;;;;;5.10;1.40;;;;;;;9.67;58.68;100956.97;10381829;28;20046;-73
2023/05/17 02:34:40;;;;;;;3.08;1.88;;;;;;;9.59;58.66;100955.03;10379211;28;20050;-70
2023/05/17 02:39:42;;;;;;;2.97;1.35;;;;;;;9.50;59.09;100962.19;10375285;28;20053;-72
2023/05/17 02:44:43;;;;;;;4.72;1.80;;;;;;;9.48;58.89;100966.88;10361901;28;20141;-71
2023/05/17 02:49:45;;;;;;;4.80;1.55;;;;;;;9.42;59.56;100966.63;10383694;28;20046;-71
2023/05/17 02:54:46;;;;;;;3.65;1.60;;;;;;;9.39;59.84;100975.81;10382670;28;20393;-72
2023/05/17 02:59:48;;;;;;;4.03;1.70;;;;;;;9.33;59.71;100985.31;10376694;28;20069;-71
2023/05/17 03:04:50;;;;;;;4.05;1.95;;;;;;;9.25;60.16;100979.88;10380156;28;20045;-72
2023/05/17 03:09:52;;;;;;;4.10;1.55;;;;;;;9.24;59.81;100982.72;10377746;28;20053;-71
2023/05/17 03:14:53;;;;;;;5.57;1.83;;;;;;;9.16;59.80;100983.47;10361170;28;20061;-72
2023/05/17 03:19:55;;;;;;;3.38;1.90;;;;;;;9.10;60.51;100986.75;10377092;28;20092;-73
2023/05/17 03:24:57;;;;;;;11.43;2.60;;;;;;;9.04;60.30;100995.41;10376480;28;20651;-71
2023/05/17 03:29:58;;;;;;;9.07;2.40;;;;;;;8.95;60.23;100991.78;10381031;28;20144;-70
2023/05/17 03:34:59;;;;;;;7.38;1.45;;;;;;;8.93;60.92;100991.09;10376920;28;20535;-71
2023/05/17 03:40:01;;;;;;;3.28;1.40;;;;;;;8.99;60.39;100990.50;10370312;28;20046;-71
2023/05/17 03:45:03;;;;;;;5.72;1.50;;;;;;;8.96;60.39;100998.81;10373531;28;20053;-73
2023/05/17 03:50:05;;;;;;;7.18;1.67;;;;;;;8.90;60.40;101000.28;10379422;28;20061;-75
2023/05/17 03:55:08;;;;;;;3.88;1.58;;;;;;;8.84;60.96;101003.53;10373825;28;20138;-72
2023/05/17 04:00:11;;;;;;;5.65;1.50;;;;;;;8.72;61.30;100999.38;10379212;28;20064;-75
2023/05/17 04:05:12;;;;;;;6.57;1.60;;;;;;;8.69;61.25;101007.72;10379491;28;20053;-71
2023/05/17 04:10:14;;;;;;;5.03;1.60;;;;;;;8.76;61.18;101008.81;10381186;28;20058;-71
2023/05/17 04:15:15;;;;;;;7.15;1.85;;;;;;;8.82;61.16;101012.75;10376132;28;20057;-71
2023/05/17 04:20:17;;;;;;;7.90;1.58;;;;;;;8.89;61.37;101003.97;10372492;28;20140;-70
2023/05/17 04:25:18;;;;;;;7.50;2.20;;;;;;;8.96;61.39;101012.25;10378054;28;20053;-72
2023/05/17 04:30:22;;;;;;;4.53;1.60;;;;;;;9.02;61.39;101017.00;10344321;28;20104;-73
2023/05/17 04:35:24;;;;;;;3.45;1.48;;;;;;;9.07;61.29;101028.13;10357668;28;20054;-70
2023/05/17 04:40:25;;;;;;;7.43;2.03;;;;;;;9.12;61.47;101033.03;10376047;28;20064;-70
2023/05/17 04:45:27;;;;;;;6.28;2.58;;;;;;;9.18;61.75;101034.28;10361450;28;20515;-74
2023/05/17 04:50:28;;;;;;;10.85;2.08;;;;;;;9.25;61.64;101043.44;10360830;28;20057;-76
2023/05/17 04:55:30;;;;;;;6.25;1.42;;;;;;;9.40;61.71;101047.28;10371612;28;20042;-73
2023/05/17 05:00:32;;;;;;;5.38;1.48;;;;;;;9.52;61.71;101047.94;10367968;28;20045;-71
2023/05/17 05:05:34;;;;;;;6.03;1.65;;;;;;;9.66;61.39;101052.75;10384760;28;20049;-67
2023/05/17 05:10:35;;;;;;;5.18;1.63;;;;;;;9.78;61.48;101053.38;10386014;28;20052;-68
2023/05/17 05:15:37;;;;;;;3.53;1.38;;;;;;;9.95;61.21;101058.88;10384207;28;20612;-68
2023/05/17 05:20:38;;;;;;;6.28;1.75;;;;;;;10.12;61.16;101064.25;10384938;28;20050;-67
2023/05/17 05:25:40;;;;;;;7.63;1.92;;;;;;;10.35;60.86;101069.16;10378428;28;20045;-67
2023/05/17 05:30:41;;;;;;;7.05;2.10;;;;;;;10.52;61.15;101076.34;10379251;28;20073;-67
2023/05/17 05:35:43;;;;;;;5.28;1.40;;;;;;;10.66;61.02;101085.69;10382172;28;20057;-66
2023/05/17 05:40:45;;;;;;;6.43;1.63;;;;;;;10.89;60.76;101087.81;10378834;28;20120;-67
2023/05/17 05:45:47;;;;;;;7.20;1.45;;;;;;;11.13;60.43;101081.72;10380840;28;20060;-66
2023/05/17 05:50:48;;;;;;;6.38;1.63;;;;;;;11.40;60.63;101077.94;10381962;28;20587;-67
2023/05/17 05:55:50;;;;;;;4.97;1.23;;;;;;;11.61;60.50;101087.41;10382243;28;20050;-67
2023/05/17 06:00:51;;;;;;;5.18;1.40;;;;;;;11.82;60.26;101095.88;10377887;28;20052;-66
2023/05/17 06:05:53;;;;;;;4.97;2.03;;;;;;;12.02;60.17;101107.22;10380991;28;20058;-66
2023/05/17 06:10:55;;;;;;;8.85;1.50;;;;;;;12.24;59.44;101102.19;10379983;28;20057;-67
2023/05/17 06:15:58;;;;;;;7.60;1.70;;;;;;;12.50;59.40;101113.66;10382982;28;20033;-66
2023/05/17 06:20:59;;;;;;;6.78;1.25;;;;;;;12.66;58.71;101122.75;10381526;28;20058;-66
2023/05/17 06:26:01;;;;;;;4.32;1.30;;;;;;;12.64;59.09;101116.69;10383328;28;20049;-66
2023/05/17 06:31:02;;;;;;;5.32;1.02;;;;;;;12.65;58.24;101119.19;10381936;28;20077;-66
2023/05/17 06:36:04;;;;;;;8.73;2.33;;;;;;;12.84;57.56;101114.44;10365929;28;20112;-66
2023/05/17 06:41:06;;;;;;;4.32;1.30;;;;;;;13.03;57.29;101113.19;10383209;28;20144;-66
2023/05/17 06:46:07;;;;;;;5.07;1.83;;;;;;;13.27;56.37;101121.22;10378685;28;20041;-75
2023/05/17 06:51:09;;;;;;;11.40;1.92;;;;;;;13.43;56.06;101119.53;10379435;28;20057;-75
2023/05/17 06:56:10;;;;;;;4.32;0.90;;;;;;;13.37;55.16;101107.56;10383060;28;20151;-75
2023/05/17 07:01:13;;;;;;;5.22;1.10;;;;;;;13.83;54.73;101117.59;10359190;28;20112;-75
2023/05/17 07:06:14;;;;;;;13.52;1.42;;;;;;;14.13;53.68;101115.88;10378496;28;20172;-75
2023/05/17 07:11:18;;;;;;;5.20;1.02;;;;;;;14.49;53.56;101117.94;10377719;28;20136;-75
2023/05/17 07:16:20;;;;;;;5.15;2.13;;;;;;;14.84;53.15;101132.69;10381132;28;20045;-74
2023/05/17 07:21:22;;;;;;;6.68;0.80;;;;;;;15.31;51.81;101127.94;10354839;28;20056;-74
2023/05/17 07:26:24;;;;;;;6.40;0.88;;;;;;;15.65;50.99;101132.75;10375918;28;20056;-72
2023/05/17 07:31:26;;;;;;;2.85;0.85;;;;;;;15.89;50.59;101132.63;10359428;28;20144;-73
2023/05/17 07:36:29;;;;;;;8.15;1.20;;;;;;;16.10;49.79;101129.13;10375688;28;20720;-73
2023/05/17 07:41:32;;;;;;;5.57;0.70;;;;;;;16.24;49.36;101129.03;10383937;28;20137;-73
2023/05/17 07:46:35;;;;;;;6.63;1.00;;;;;;;16.21;49.38;101125.88;10381296;28;20069;-74
2023/05/17 07:51:37;;;;;;;6.90;1.10;;;;;;;16.27;49.42;101135.94;10380636;28;20496;-73
2023/05/17 07:56:39;;;;;;;3.80;0.80;;;;;;;16.06;48.34;101145.75;10376929;28;20436;-73
2023/05/17 08:01:40;;;;;;;6.47;1.02;;;;;;;16.06;47.43;101145.75;10383029;28;20061;-64
2023/05/17 08:06:44;;;;;;;5.55;0.80;;;;;;;15.92;46.75;101146.66;10378732;28;20054;-63
2023/05/17 08:11:46;;;;;;;7.13;1.23;;;;;;;15.90;45.90;101156.03;10380161;28;20141;-64
2023/05/17 08:16:47;;;;;;;6.47;1.60;;;;;;;15.92;45.83;101151.25;10374871;28;20061;-65
2023/05/17 08:21:49;;;;;;;4.57;0.70;;;;;;;15.86;45.24;101150.13;10382132;28;20461;-64
2023/05/17 08:26:51;;;;;;;2.08;0.65;;;;;;;15.97;44.79;101143.38;10378889;28;20064;-65
2023/05/17 08:31:54;;;;;;;3.25;0.75;;;;;;;16.31;43.79;101136.41;10379753;28;20045;-65
2023/05/17 08:36:55;;;;;;;2.42;0.60;;;;;;;16.24;43.15;101133.63;10384125;28;20060;-65
2023/05/17 08:41:58;;;;;;;3.22;0.95;;;;;;;16.27;42.83;101138.66;10390178;28;20045;-72
2023/05/17 08:47:01;;;;;;;4.00;1.25;;;;;;;16.44;42.54;101131.09;10369149;28;20045;-72
2023/05/17 08:52:08;;;;;;;5.65;0.73;;;;;;;16.39;42.30;101131.69;10387054;28;20050;-71
2023/05/17 08:57:12;;;;;;;2.80;1.65;;;;;;;16.17;42.54;101138.13;10384727;28;20053;-72
2023/05/17 09:02:15;;;;;;;5.88;0.77;;;;;;;15.92;42.53;101138.53;10383965;28;20060;-73
2023/05/17 09:07:16;;;;;;;4.93;1.27;;;;;;;16.03;42.47;101142.59;10382065;28;20046;-73
2023/05/17 09:12:21;;;;;;;5.47;0.80;;;;;;;16.05;42.11;101140.53;10385106;28;20049;-72
2023/05/17 09:17:26;;;;;;;2.88;0.70;;;;;;;16.28;41.79;101134.91;10378999;28;20463;-71
2023/05/17 09:22:27;;;;;;;5.55;1.20;;;;;;;16.77;41.38;101127.81;10384512;28;20053;-70
2023/05/17 09:27:32;;;;;;;3.58;0.70;;;;;;;17.19;40.83;101132.28;10381703;28;20586;-71
2023/05/17 09:32:33;;;;;;;6.95;0.90;;;;;;;17.38;40.89;101133.44;10365076;28;20109;-72
2023/05/17 09:37:38;;;;;;;8.00;1.00;;;;;;;17.33;40.58;101135.09;10384553;28;20536;-74
2023/05/17 09:42:39;;;;;;;4.00;1.48;;;;;;;17.45;40.03;101137.00;10381009;28;20045;-75
2023/05/17 09:47:41;;;;;;;4.82;0.70;;;;;;;17.45;40.15;101131.56;10377995;28;20059;-73
2023/05/17 09:52:43;;;;;;;5.43;0.77;;;;;;;17.49;40.49;101140.19;10379178;28;20408;-74
2023/05/17 09:57:45;;;;;;;4.07;1.05;;;;;;;17.64;40.70;101137.31;10383417;28;20180;-73
2023/05/17 10:02:48;;;;;;;4.20;1.38;;;;;;;17.73;40.55;101125.22;10372342;28;20053;-73
2023/05/17 10:07:52;;;;;;;6.85;1.08;;;;;;;18.02;40.45;101124.06;10385560;28;20056;-72
2023/05/17 10:12:55;;;;;;;4.00;0.80;;;;;;;18.15;40.41;101104.22;10384555;28;20327;-73
2023/05/17 10:17:56;;;;;;;3.63;0.73;;;;;;;18.79;39.33;101104.63;10351467;28;20690;-74
2023/05/17 10:23:02;;;;;;;5.95;0.60;;;;;;;18.69;38.67;101109.66;10363102;28;20452;-73
2023/05/17 10:28:06;;;;;;;4.25;0.80;;;;;;;18.69;38.00;101117.84;10379861;28;20053;-73
2023/05/17 10:33:11;;;;;;;3.08;0.50;;;;;;;18.42;38.52;101107.81;10384336;28;20072;-73
2023/05/17 10:38:16;;;;;;;2.35;0.55;;;;;;;18.63;37.87;101114.91;10379224;28;20064;-74
2023/05/17 10:43:18;;;;;;;4.13;0.70;;;;;;;18.85;37.71;101113.88;10378783;28;20073;-74
2023/05/17 10:48:20;;;;;;;2.45;0.60;;;;;;;18.78;37.43;101122.84;10381044;28;20061;-74
2023/05/17 10:53:22;;;;;;;2.88;0.88;;;;;;;18.82;37.42;101110.53;10382730;28;20089;-74
2023/05/17 10:58:26;;;;;;;2.42;0.50;;;;;;;18.59;37.11;101108.19;10378409;28;20579;-74
2023/05/17 11:03:29;;;;;;;7.63;0.50;;;;;;;18.95;36.71;101104.19;10379203;28;20050;-73
2023/05/17 11:08:31;;;;;;;5.13;0.70;;;;;;;19.67;35.63;101095.97;10372244;28;20084;-74
2023/05/17 11:13:33;;;;;;;3.47;0.55;;;;;;;20.32;34.86;101084.88;10376973;28;20045;-74
2023/05/17 11:18:47;;;;;;;5.75;0.50;;;;;;;20.43;33.91;101090.66;10382430;28;20136;-75
2023/05/17 11:23:55;;;;;;;10.90;3.00;;;;;;;20.71;33.55;101087.47;10363436;28;20049;-74
2023/05/17 11:29:09;;;;;;;4.18;0.40;;;;;;;20.71;33.21;101085.59;10359547;28;20052;-75
2023/05/17 11:34:11;;;;;;;2.85;0.50;;;;;;;20.45;33.36;101100.28;10382035;28;20077;-73
2023/05/17 11:39:14;;;;;;;3.03;0.40;;;;;;;20.10;33.38;101098.06;10379658;28;20042;-74
2023/05/17 11:44:24;;;;;;;3.22;0.70;;;;;;;20.29;32.93;101090.75;10380469;28;20061;-74
2023/05/17 11:49:26;;;;;;;2.08;0.40;;;;;;;20.85;32.15;101102.69;10367227;28;20065;-64
2023/05/17 11:54:41;;;;;;;3.53;0.47;;;;;;;20.82;32.25;101105.06;10377221;28;20096;-67
2023/05/17 11:59:43;;;;;;;4.93;0.60;;;;;;;21.11;32.05;101104.31;10374961;28;20058;-67
2023/05/17 12:04:45;;;;;;;3.88;0.95;;;;;;;21.72;31.70;101090.75;10360570;28;20046;-67
2023/05/17 12:09:47;;;;;;;3.40;0.98;;;;;;;21.94;30.96;101091.91;10390851;28;20060;-67
2023/05/17 12:14:49;;;;;;;2.40;0.40;;;;;;;22.06;30.38;101096.56;10388459;28;20041;-66
2023/05/17 12:19:52;;;;;;;4.13;0.43;;;;;;;21.74;29.85;101097.66;10390451;28;20073;-64
2023/05/17 12:24:54;;;;;;;3.90;0.65;;;;;;;22.07;29.84;101087.28;10393969;28;20038;-66
2023/05/17 12:29:56;;;;;;;8.18;0.70;;;;;;;22.45;29.21;101092.38;10393493;28;20737;-66
2023/05/17 12:34:57;;;;;;;5.53;0.60;;;;;;;22.51;28.87;101091.47;10393645;28;20567;-66
2023/05/17 12:40:03;;;;;;;3.50;0.70;;;;;;;22.94;28.13;101090.22;10391130;28;20041;-66
2023/05/17 12:45:05;;;;;;;3.33;0.53;;;;;;;23.22;28.40;101076.88;10390287;28;20064;-67
2023/05/17 12:50:07;;;;;;;3.72;0.50;;;;;;;23.29;27.92;101081.16;10390665;28;20055;-67
2023/05/17 12:55:11;;;;;;;5.75;0.80;;;;;;;23.41;28.35;101077.53;10386405;28;20050;-67
2023/05/17 13:00:14;;;;;;;6.55;0.80;;;;;;;23.37;27.93;101074.44;10394596;28;20500;-67
2023/05/17 13:05:22;;;;;;;5.60;0.82;;;;;;;23.72;26.85;101070.75;10389960;28;20068;-67
2023/05/17 13:10:25;;;;;;;4.20;0.68;;;;;;;23.73;27.12;101072.38;10385687;28;20829;-67
2023/05/17 13:15:32;;;;;;;2.92;0.80;;;;;;;23.61;26.94;101066.13;10385533;28;20083;-67
2023/05/17 13:20:33;;;;;;;6.25;0.60;;;;;;;23.83;26.74;101060.78;10382532;28;20130;-67
2023/05/17 13:25:35;;;;;;;10.50;0.93;;;;;;;24.38;26.33;101056.50;10380476;28;20658;-67
2023/05/17 13:30:37;;;;;;;4.15;0.57;;;;;;;24.72;25.74;101052.66;10381664;28;20069;-66
2023/05/17 13:35:40;;;;;;;4.95;0.82;;;;;;;24.96;25.70;101044.19;10381608;28;20402;-68
2023/05/17 13:40:42;;;;;;;4.65;0.65;;;;;;;25.11;25.75;101043.53;10388191;28;20558;-68
2023/05/17 13:45:43;;;;;;;3.65;0.80;;;;;;;25.55;24.87;101048.19;10370819;28;20049;-68
2023/05/17 13:50:45;;;;;;;5.10;0.55;;;;;;;26.10;24.70;101045.16;10388714;28;20059;-70
2023/05/17 13:55:47;;;;;;;5.03;0.68;;;;;;;26.48;23.89;101037.75;10377280;28;20053;-68
2023/05/17 14:00:48;;;;;;;4.90;0.60;;;;;;;26.49;24.28;101042.16;10383028;28;20065;-66
2023/05/17 14:05:51;;;;;;;4.28;0.68;;;;;;;26.28;24.70;101027.41;10378499;28;20056;-66
2023/05/17 14:10:53;;;;;;;2.95;0.57;;;;;;;26.79;23.95;101026.91;10376687;28;20680;-66
2023/05/17 14:15:54;;;;;;;5.47;0.93;;;;;;;27.43;22.77;101033.25;10381966;28;20046;-66
2023/05/17 14:20:56;;;;;;;7.72;0.80;;;;;;;27.30;23.24;101032.69;10381295;28;20045;-65
2023/05/17 14:25:57;;;;;;;4.95;0.73;;;;;;;27.42;22.23;101023.31;10380005;28;20955;-64
2023/05/17 14:30:59;;;;;;;6.07;1.23;;;;;;;26.91;23.28;101026.69;10377548;28;20515;-67
2023/05/17 14:36:02;;;;;;;4.90;1.02;;;;;;;27.63;22.73;101015.91;10376107;28;20128;-67
2023/05/17 14:41:05;;;;;;;3.90;0.60;;;;;;;27.99;21.92;101016.78;10360216;28;20188;-67
2023/05/17 14:46:06;;;;;;;8.90;1.95;;;;;;;28.75;21.39;101019.75;10377835;28;20041;-66
2023/05/17 14:51:08;;;;;;;9.35;1.88;;;;;;;28.62;20.93;101010.94;10377628;28;20049;-66
2023/05/17 14:56:09;;;;;;;5.18;0.60;;;;;;;28.33;21.04;101009.84;10373633;28;20046;-68
2023/05/17 15:01:11;;;;;;;6.80;0.63;;;;;;;28.08;21.13;101009.63;10373062;28;20049;-67
2023/05/17 15:06:13;;;;;;;5.45;0.77;;;;;;;27.99;21.32;101007.69;10376569;28;20060;-66
2023/05/17 15:11:14;;;;;;;8.75;1.02;;;;;;;27.82;21.78;101010.66;10372191;28;20049;-66
2023/05/17 15:16:16;;;;;;;4.43;0.90;;;;;;;27.70;21.70;101008.19;10379324;28;20095;-66
2023/05/17 15:21:17;;;;;;;3.97;0.73;;;;;;;27.65;21.87;101006.25;10372121;28;20160;-67
2023/05/17 15:26:20;;;;;;;4.25;0.60;;;;;;;27.79;21.55;101009.31;10377606;28;20396;-66
2023/05/17 15:31:23;;;;;;;3.50;0.73;;;;;;;27.67;21.34;101012.31;10377473;28;20477;-66
2023/05/17 15:36:24;;;;;;;4.97;0.63;;;;;;;27.15;21.56;101010.50;10376560;28;20052;-66
2023/05/17 15:41:26;;;;;;;4.78;0.63;;;;;;;26.85;21.79;101011.22;10379298;28;20155;-65
2023/05/17 15:46:31;;;;;;;5.25;0.50;;;;;;;27.09;22.40;101017.13;10380169;28;20061;-65
2023/05/17 15:51:32;;;;;;;5.47;0.50;;;;;;;27.09;21.67;101012.44;10379291;28;20515;-64
2023/05/17 15:56:37;;;;;;;8.68;1.48;;;;;;;27.12;21.78;101013.00;10362281;28;21382;-66
2023/05/17 16:01:40;;;;;;;5.28;0.60;;;;;;;27.26;21.59;101011.41;10383709;28;20073;-65
2023/05/17 16:06:42;;;;;;;4.47;1.58;;;;;;;27.01;21.59;101017.63;10381143;28;20403;-65
2023/05/17 16:11:43;;;;;;;5.82;0.50;;;;;;;27.14;21.57;101003.34;10376387;28;20491;-66
2023/05/17 16:16:45;;;;;;;4.07;0.90;;;;;;;27.09;21.66;101014.34;10374350;28;20284;-66
2023/05/17 16:21:47;;;;;;;4.82;0.95;;;;;;;27.03;22.05;101019.03;10381140;28;20496;-67
2023/05/17 16:26:51;;;;;;;6.88;0.93;;;;;;;27.17;21.23;101024.03;10375981;28;20061;-67
2023/05/17 16:31:52;;;;;;;7.05;0.90;;;;;;;27.35;20.87;101015.31;10373238;28;20081;-67
2023/05/17 16:36:54;;;;;;;3.10;0.68;;;;;;;27.21;21.54;101031.53;10375326;28;20144;-67
2023/05/17 16:41:55;;;;;;;6.82;0.93;;;;;;;27.26;21.48;101025.22;10377235;28;20050;-66
2023/05/17 16:46:57;;;;;;;3.03;0.50;;;;;;;27.30;21.34;101034.63;10373271;28;20060;-65
2023/05/17 16:51:58;;;;;;;4.43;0.60;;;;;;;27.42;21.35;101029.69;10375278;28;20084;-67
2023/05/17 16:57:01;;;;;;;6.68;2.05;;;;;;;27.29;21.45;101032.94;10384428;28;20045;-67
2023/05/17 17:02:03;;;;;;;5.13;0.55;;;;;;;27.01;21.68;101029.50;10379282;28;20054;-66
2023/05/17 17:07:04;;;;;;;5.97;0.50;;;;;;;26.81;21.85;101045.97;10383073;28;20128;-65
2023/05/17 17:12:06;;;;;;;3.50;0.70;;;;;;;26.84;21.27;101032.47;10387117;28;20631;-66
2023/05/17 17:17:25;;;;;;;3.22;0.70;;;;;;;26.52;21.71;101043.53;10378989;28;20070;-67
2023/05/17 17:22:27;;;;;;;3.67;0.50;;;;;;;26.34;22.08;101044.81;10384055;28;20078;-66
2023/05/17 17:27:28;;;;;;;4.57;0.50;;;;;;;26.34;22.18;101039.28;10367309;28;20511;-67
2023/05/17 17:32:30;;;;;;;5.97;0.98;;;;;;;26.04;22.14;101034.38;10385616;28;20050;-67
2023/05/17 17:37:32;;;;;;;9.82;0.80;;;;;;;25.94;22.23;101048.88;10385967;28;20112;-66
2023/05/17 17:42:33;;;;;;;2.70;0.50;;;;;;;25.72;22.75;101054.44;10385153;28;20042;-66
2023/05/17 17:47:34;;;;;;;4.65;0.70;;;;;;;25.36;23.33;101059.56;10392892;28;20050;-66
2023/05/17 17:52:36;;;;;;;5.20;0.95;;;;;;;25.00;23.96;101056.34;10382819;28;20111;-66
2023/05/17 17:57:38;;;;;;;3.53;0.60;;;;;;;24.67;23.88;101062.75;10388800;28;20129;-67
2023/05/17 18:02:39;;;;;;;9.15;0.80;;;;;;;23.98;24.90;101066.56;10386887;28;20057;-64
2023/05/17 18:07:41;;;;;;;3.45;0.60;;;;;;;23.17;25.63;101078.44;10383778;28;20045;-63
2023/05/17 18:12:42;;;;;;;3.60;0.57;;;;;;;22.36;26.12;101071.91;10365659;28;20057;-64
2023/05/17 18:17:44;;;;;;;3.90;0.60;;;;;;;21.65;27.39;101077.16;10385512;28;20053;-65
2023/05/17 18:22:46;;;;;;;4.80;0.80;;;;;;;21.03;27.99;101085.50;10384863;28;20053;-67
2023/05/17 18:27:47;;;;;;;3.33;0.47;;;;;;;20.50;28.49;101097.75;10389646;28;20054;-67
2023/05/17 18:32:49;;;;;;;5.22;0.60;;;;;;;19.87;29.35;101100.53;10383717;28;20061;-67
2023/05/17 18:37:50;;;;;;;7.88;2.00;;;;;;;19.27;30.11;101111.66;10381084;28;20136;-65
2023/05/17 18:42:52;;;;;;;3.05;0.55;;;;;;;18.87;30.69;101104.41;10375951;28;20066;-67
2023/05/17 18:47:53;;;;;;;6.13;0.73;;;;;;;18.59;31.33;101112.81;10378160;28;20050;-67
2023/05/17 18:52:55;;;;;;;5.90;1.42;;;;;;;18.10;32.22;101112.16;10381902;28;20508;-67
2023/05/17 18:57:57;;;;;;;4.38;1.42;;;;;;;17.75;33.11;101125.00;10379931;28;20053;-69
2023/05/17 19:02:59;;;;;;;5.78;0.60;;;;;;;17.42;33.73;101129.28;10376138;28;20052;-68
2023/05/17 19:08:00;;;;;;;6.55;0.50;;;;;;;17.03;33.99;101128.03;10363453;28;20053;-67
2023/05/17 19:13:02;;;;;;;11.18;0.80;;;;;;;16.65;34.52;101132.94;10378379;28;20045;-65
2023/05/17 19:18:03;;;;;;;4.63;0.55;;;;;;;16.39;35.20;101142.53;10379360;28;20065;-68
2023/05/17 19:23:05;;;;;;;4.97;0.50;;;;;;;16.04;35.71;101155.13;10376736;28;20112;-67
2023/05/17 19:28:07;;;;;;;6.15;1.00;;;;;;;15.74;36.29;101148.94;10378869;28;20054;-65
2023/05/17 19:33:10;;;;;;;5.45;0.82;;;;;;;15.58;36.76;101161.66;10379967;28;20144;-64
2023/05/17 19:38:12;;;;;;;6.03;0.77;;;;;;;15.34;37.08;101170.06;10380459;28;20058;-63
2023/05/17 19:43:13;;;;;;;8.20;1.48;;;;;;;15.11;37.50;101179.13;10365635;28;21863;-66
2023/05/17 19:48:15;;;;;;;7.22;0.57;;;;;;;15.01;37.67;101168.56;10385483;28;20061;-63
2023/05/17 19:53:16;;;;;;;5.10;0.63;;;;;;;14.91;38.05;101178.84;10395184;28;20096;-59
2023/05/17 19:58:18;;;;;;;9.32;1.55;;;;;;;14.75;38.49;101176.25;10390451;28;20052;-64
2023/05/17 20:03:21;;;;;;;5.93;1.30;;;;;;;14.53;39.04;101181.47;10385834;28;20061;-61
2023/05/17 20:08:22;;;;;;;6.72;0.65;;;;;;;14.33;39.44;101183.84;10369874;28;20056;-60
2023/05/17 20:13:27;;;;;;;8.98;1.25;;;;;;;13.96;40.33;101185.44;10385447;28;20069;-61
2023/05/17 20:18:29;;;;;;;5.22;1.17;;;;;;;13.85;40.23;101188.53;10380620;28;20058;-62
2023/05/17 20:23:30;;;;;;;5.63;1.17;;;;;;;13.80;40.60;101193.63;10389626;28;20569;-60
2023/05/17 20:28:32;;;;;;;4.80;0.90;;;;;;;13.70;41.07;101201.94;10367962;28;20042;-62
2023/05/17 20:33:33;;;;;;;8.30;1.50;;;;;;;13.63;41.65;101199.09;10383400;28;20056;-61
2023/05/17 20:38:35;;;;;;;11.38;3.30;;;;;;;13.54;41.73;101208.25;10384445;28;20113;-61
2023/05/17 20:43:36;;;;;;;8.32;2.00;;;;;;;13.42;42.51;101204.25;10361977;28;20066;-60
2023/05/17 20:48:41;;;;;;;10.80;2.15;;;;;;;13.22;42.94;101204.59;10364781;28;20617;-60
2023/05/17 20:53:43;;;;;;;6.28;1.15;;;;;;;13.06;43.07;101205.47;10383368;28;20056;-61
2023/05/17 20:58:46;;;;;;;12.85;1.02;;;;;;;12.87;43.60;101212.09;10380976;28;20048;-61
2023/05/17 21:03:49;;;;;;;6.50;0.70;;;;;;;12.83;43.23;101210.72;10380543;28;20081;-62
2023/05/17 21:08:51;;;;;;;9.80;0.90;;;;;;;12.76;43.43;101219.69;10381760;28;20068;-63
2023/05/17 21:13:53;;;;;;;6.25;0.85;;;;;;;12.70;43.01;101208.53;10380990;28;20048;-60
2023/05/17 21:18:54;;;;;;;7.80;1.83;;;;;;;12.63;43.78;101217.47;10387095;28;20058;-60
2023/05/17 21:23:56;;;;;;;11.63;1.65;;;;;;;12.56;43.78;101219.16;10380015;28;20078;-59
2023/05/17 21:28:57;;;;;;;8.32;1.48;;;;;;;12.52;43.87;101217.78;10379496;28;20069;-60
2023/05/17 21:33:59;;;;;;;10.18;0.90;;;;;;;12.44;44.10;101216.81;10383103;28;20080;-61
2023/05/17 21:39:00;;;;;;;5.55;1.17;;;;;;;12.41;44.31;101224.38;10377124;28;20049;-62
2023/05/17 21:44:02;;;;;;;9.63;1.55;;;;;;;12.38;44.09;101227.38;10381546;28;20104;-60
2023/05/17 21:49:03;;;;;;;5.32;1.20;;;;;;;12.35;44.50;101227.75;10379436;28;20041;-60
2023/05/17 21:54:04;;;;;;;12.90;1.98;;;;;;;12.22;44.61;101223.69;10378034;28;20045;-62
2023/05/17 21:59:06;;;;;;;6.35;1.00;;;;;;;12.15;44.82;101227.19;10382705;28;20048;-60
2023/05/17 22:04:08;;;;;;;3.53;0.88;;;;;;;12.09;44.79;101220.59;10367763;28;20054;-62
2023/05/17 22:09:10;;;;;;;8.50;1.75;;;;;;;12.04;45.02;101220.25;10378483;28;20077;-62
2023/05/17 22:14:11;;;;;;;7.63;1.20;;;;;;;11.97;45.31;101230.84;10383776;28;20067;-60
2023/05/17 22:19:13;;;;;;;7.95;1.55;;;;;;;11.94;45.57;101219.53;10381138;28;20076;-60
2023/05/17 22:24:14;;;;;;;6.57;1.20;;;;;;;11.90;45.66;101219.84;10381509;28;20057;-61
2023/05/17 22:29:16;;;;;;;5.43;1.77;;;;;;;11.81;46.08;101214.56;10380733;28;20053;-60
2023/05/17 22:34:17;;;;;;;21.13;4.60;;;;;;;11.76;46.26;101216.91;10377027;28;20061;-60
2023/05/17 22:39:19;;;;;;;11.98;1.83;;;;;;;11.73;45.85;101228.88;10380711;28;20058;-60
2023/05/17 22:44:20;;;;;;;13.20;2.28;;;;;;;11.66;46.20;101234.03;10381388;28;20310;-62
2023/05/17 22:49:25;;;;;;;9.43;1.20;;;;;;;11.65;46.43;101223.44;10381951;28;20508;-60
2023/05/17 22:54:27;;;;;;;9.18;1.02;;;;;;;11.66;46.55;101228.66;10379166;28;20046;-59
2023/05/17 22:59:28;;;;;;;5.97;1.05;;;;;;;11.67;46.07;101235.75;10380217;28;20056;-61
2023/05/17 23:04:30;;;;;;;12.13;1.00;;;;;;;11.62;46.48;101240.75;10379915;28;20683;-61
2023/05/17 23:09:39;;;;;;;6.40;0.93;;;;;;;11.52;46.65;101240.03;10379735;28;20132;-61